createdAt,value
2023-05-18T00:02:26.610Z,0.40
2023-05-18T00:04:56.109Z,0.50
2023-05-18T00:07:24.056Z,0.50
2023-05-18T00:09:51.941Z,0.60
2023-05-18T00:12:19.924Z,0.60
2023-05-18T00:14:47.861Z,0.67
2023-05-18T00:17:17.674Z,0.60
2023-05-18T00:19:46.928Z,0.57
2023-05-18T00:22:18.996Z,0.50
2023-05-18T00:24:49.328Z,0.50
2023-05-18T00:27:17.175Z,0.40
2023-05-18T00:29:45.079Z,0.40
2023-05-18T00:32:13.042Z,0.50
2023-05-18T00:34:41.020Z,0.40
2023-05-18T00:37:08.950Z,0.43
2023-05-18T00:39:38.459Z,0.30
2023-05-18T00:42:06.839Z,0.40
2023-05-18T00:44:34.809Z,0.50
2023-05-18T00:47:03.205Z,0.20
2023-05-18T00:49:31.337Z,0.40
2023-05-18T00:52:01.557Z,0.50
2023-05-18T00:54:30.808Z,0.77
2023-05-18T00:57:02.203Z,0.30
2023-05-18T00:59:30.709Z,0.40
2023-05-18T01:01:59.614Z,0.40
2023-05-18T01:04:27.992Z,0.43
2023-05-18T01:06:58.598Z,0.40
2023-05-18T01:09:26.625Z,0.37
2023-05-18T01:12:02.933Z,0.47
2023-05-18T01:14:36.633Z,0.50
2023-05-18T01:17:11.394Z,0.40
2023-05-18T01:20:07.191Z,0.30
2023-05-18T01:22:51.472Z,0.40
2023-05-18T01:25:29.952Z,0.40
2023-05-18T01:28:06.153Z,0.40
2023-05-18T01:30:35.586Z,0.60
2023-05-18T01:33:08.396Z,0.57
2023-05-18T01:35:36.992Z,0.53
2023-05-18T01:38:05.113Z,0.67
2023-05-18T01:40:36.576Z,0.53
2023-05-18T01:43:11.273Z,0.40
2023-05-18T01:45:43.420Z,0.60
2023-05-18T01:48:13.153Z,0.40
2023-05-18T01:50:46.345Z,0.37
2023-05-18T01:53:21.240Z,0.40
2023-05-18T01:55:51.486Z,0.43
2023-05-18T01:58:23.111Z,0.50
2023-05-18T02:00:51.695Z,0.50
2023-05-18T02:03:19.953Z,0.57
2023-05-18T02:05:48.146Z,0.50
2023-05-18T02:08:16.368Z,0.50
2023-05-18T02:10:44.323Z,0.40
2023-05-18T02:13:12.292Z,0.60
2023-05-18T02:15:41.523Z,0.90
2023-05-18T02:18:09.419Z,0.50
2023-05-18T02:20:38.220Z,0.50
2023-05-18T02:23:06.117Z,0.50
2023-05-18T02:25:34.024Z,0.80
2023-05-18T02:28:02.134Z,0.57
2023-05-18T02:30:33.208Z,0.67
2023-05-18T02:33:03.372Z,0.60
2023-05-18T02:35:32.222Z,0.50
2023-05-18T02:38:00.547Z,0.60
2023-05-18T02:40:28.414Z,0.40
2023-05-18T02:42:56.492Z,0.50
2023-05-18T02:45:26.450Z,0.60
2023-05-18T02:47:54.547Z,0.83
2023-05-18T02:50:23.975Z,1.10
2023-05-18T02:52:51.833Z,0.57
2023-05-18T02:55:20.048Z,0.50
2023-05-18T02:57:48.318Z,0.70
2023-05-18T03:00:18.180Z,0.50
2023-05-18T03:02:48.626Z,0.67
2023-05-18T03:05:18.598Z,0.53
2023-05-18T03:07:51.070Z,0.87
2023-05-18T03:10:20.099Z,0.70
2023-05-18T03:12:48.442Z,0.63
2023-05-18T03:15:16.453Z,0.70
2023-05-18T03:17:44.561Z,0.80
2023-05-18T03:20:15.650Z,0.67
2023-05-18T03:22:43.693Z,0.60
2023-05-18T03:25:13.011Z,0.50
2023-05-18T03:27:40.878Z,0.50
2023-05-18T03:30:10.014Z,0.40
2023-05-18T03:32:38.389Z,0.63
2023-05-18T03:35:06.981Z,0.60
2023-05-18T03:37:34.840Z,0.83
2023-05-18T03:40:14.652Z,0.50
2023-05-18T03:42:43.624Z,0.70
2023-05-18T03:45:12.447Z,0.50
2023-05-18T03:47:41.400Z,0.60
2023-05-18T03:50:09.937Z,0.60
2023-05-18T03:52:38.182Z,0.30
2023-05-18T03:55:07.137Z,0.50
2023-05-18T03:57:36.386Z,0.50
2023-05-18T04:00:09.471Z,0.50
2023-05-18T04:02:37.843Z,0.50
2023-05-18T04:05:06.891Z,0.60
2023-05-18T04:07:34.786Z,0.90
2023-05-18T04:10:03.859Z,0.70
2023-05-18T04:12:31.817Z,0.50
2023-05-18T04:15:01.165Z,0.60
2023-05-18T04:17:29.768Z,0.40
2023-05-18T04:19:57.894Z,0.57
2023-05-18T04:22:29.866Z,0.57
2023-05-18T04:24:57.842Z,0.50
2023-05-18T04:27:25.842Z,0.80
2023-05-18T04:29:53.698Z,0.60
2023-05-18T04:32:27.103Z,0.50
2023-05-18T04:34:58.633Z,0.60
2023-05-18T04:37:26.631Z,0.77
2023-05-18T04:39:54.792Z,0.60
2023-05-18T04:42:22.674Z,0.70
2023-05-18T04:44:52.280Z,0.50
2023-05-18T04:47:22.086Z,0.80
2023-05-18T04:49:52.425Z,0.40
2023-05-18T04:52:20.752Z,0.60
2023-05-18T04:54:48.891Z,0.57
2023-05-18T04:57:16.868Z,0.70
2023-05-18T04:59:47.375Z,0.60
2023-05-18T05:02:15.358Z,0.50
2023-05-18T05:04:43.374Z,0.80
2023-05-18T05:07:12.720Z,0.60
2023-05-18T05:09:40.575Z,0.50
2023-05-18T05:12:09.248Z,0.70
2023-05-18T05:14:37.175Z,0.50
2023-05-18T05:17:05.343Z,0.77
2023-05-18T05:19:33.555Z,0.40
2023-05-18T05:22:04.852Z,0.60
2023-05-18T05:24:34.701Z,0.57
2023-05-18T05:27:06.769Z,0.83
2023-05-18T05:29:34.737Z,0.77
2023-05-18T05:32:02.628Z,0.70
2023-05-18T05:34:30.663Z,0.60
2023-05-18T05:36:58.625Z,0.70
2023-05-18T05:39:26.782Z,0.60
2023-05-18T05:41:57.190Z,0.50
2023-05-18T05:44:25.345Z,0.87
2023-05-18T05:46:53.358Z,0.50
2023-05-18T05:49:21.574Z,0.60
2023-05-18T05:51:49.676Z,0.90
2023-05-18T05:54:17.569Z,0.60
2023-05-18T05:56:45.759Z,0.90
2023-05-18T05:59:15.613Z,0.80
2023-05-18T06:01:43.551Z,0.70
2023-05-18T06:04:12.705Z,0.50
2023-05-18T06:06:41.605Z,0.60
2023-05-18T06:09:09.551Z,0.70
2023-05-18T06:11:37.638Z,0.70
2023-05-18T06:14:05.858Z,0.60
2023-05-18T06:16:35.226Z,0.60
2023-05-18T06:19:03.315Z,0.65
2023-05-18T06:21:31.728Z,0.70
2023-05-18T06:24:01.415Z,0.52
2023-05-18T06:26:29.388Z,0.68
2023-05-18T06:28:57.513Z,0.50
2023-05-18T06:31:25.950Z,0.60
2023-05-18T06:33:55.610Z,0.57
2023-05-18T06:36:23.579Z,0.60
2023-05-18T06:38:51.450Z,0.70
2023-05-18T06:41:19.710Z,0.90
2023-05-18T06:43:47.776Z,0.57
2023-05-18T06:46:21.192Z,0.68
2023-05-18T06:48:49.418Z,0.75
2023-05-18T06:51:18.665Z,0.80
2023-05-18T06:53:47.654Z,1.00
2023-05-18T06:56:18.909Z,0.80
2023-05-18T06:58:46.861Z,0.30
2023-05-18T07:01:15.540Z,0.50
2023-05-18T07:03:43.640Z,0.60
2023-05-18T07:06:12.031Z,0.75
2023-05-18T07:08:41.743Z,0.70
2023-05-18T07:11:09.900Z,0.85
2023-05-18T07:13:37.802Z,0.60
2023-05-18T07:16:05.932Z,0.68
2023-05-18T07:18:34.119Z,0.40
2023-05-18T07:21:02.192Z,0.63
2023-05-18T07:23:30.084Z,0.60
2023-05-18T07:25:59.559Z,0.75
2023-05-18T07:28:29.456Z,0.82
2023-05-18T07:30:57.318Z,0.77
2023-05-18T07:33:25.307Z,0.65
2023-05-18T07:35:53.219Z,0.52
2023-05-18T07:38:21.129Z,0.57
2023-05-18T07:40:49.108Z,0.77
2023-05-18T07:43:18.380Z,0.73
2023-05-18T07:45:46.369Z,0.50
2023-05-18T07:48:15.636Z,0.50
2023-05-18T07:50:43.532Z,0.60
2023-05-18T07:53:11.467Z,0.60
2023-05-18T07:55:39.471Z,0.75
2023-05-18T07:58:07.363Z,0.47
2023-05-18T08:00:37.384Z,0.50
2023-05-18T08:03:06.947Z,0.52
2023-05-18T08:05:34.956Z,0.52
2023-05-18T08:08:06.625Z,0.45
2023-05-18T08:10:35.208Z,0.60
2023-05-18T08:13:03.559Z,0.68
2023-05-18T08:15:31.647Z,0.55
2023-05-18T08:18:01.635Z,0.85
2023-05-18T08:20:30.221Z,0.60
2023-05-18T08:22:58.153Z,0.63
2023-05-18T08:25:26.500Z,0.55
2023-05-18T08:27:54.686Z,0.70
2023-05-18T08:30:22.821Z,0.50
2023-05-18T08:32:50.936Z,0.55
2023-05-18T08:35:20.335Z,0.73
2023-05-18T08:37:50.171Z,0.70
2023-05-18T08:40:18.209Z,0.63
2023-05-18T08:42:52.558Z,0.40
2023-05-18T08:45:25.149Z,0.70
2023-05-18T08:47:57.204Z,0.70
2023-05-18T08:50:27.676Z,0.52
2023-05-18T08:52:57.075Z,0.60
2023-05-18T08:55:26.666Z,0.60
2023-05-18T08:58:00.012Z,0.40
2023-05-18T09:00:28.346Z,0.40
2023-05-18T09:02:56.964Z,0.40
2023-05-18T09:05:26.480Z,0.50
2023-05-18T09:07:57.253Z,0.70
2023-05-18T09:10:26.004Z,0.50
2023-05-18T09:12:55.937Z,0.65
2023-05-18T09:15:25.477Z,0.50
2023-05-18T09:17:53.627Z,0.40
2023-05-18T09:20:21.884Z,0.50
2023-05-18T09:22:51.803Z,0.52
2023-05-18T09:25:20.064Z,0.68
2023-05-18T09:27:49.378Z,0.35
2023-05-18T09:30:17.402Z,0.52
2023-05-18T09:32:48.244Z,0.50
2023-05-18T09:35:16.796Z,0.60
2023-05-18T09:37:44.680Z,0.45
2023-05-18T09:40:16.169Z,0.50
2023-05-18T09:42:46.039Z,0.57
2023-05-18T09:45:18.973Z,0.40
2023-05-18T09:47:47.442Z,0.75
2023-05-18T09:50:15.358Z,0.75
2023-05-18T09:52:44.303Z,0.40
2023-05-18T09:55:14.147Z,0.55
2023-05-18T09:57:44.317Z,0.38
2023-05-18T10:00:13.539Z,0.50
2023-05-18T10:02:42.394Z,0.60
2023-05-18T10:05:20.789Z,0.60
2023-05-18T10:07:48.977Z,0.55
2023-05-18T10:10:20.887Z,0.60
2023-05-18T10:12:49.404Z,0.50
2023-05-18T10:15:19.676Z,0.63
2023-05-18T10:17:48.516Z,0.63
2023-05-18T10:20:19.995Z,0.80
2023-05-18T10:22:49.586Z,0.65
2023-05-18T10:25:22.469Z,0.50
2023-05-18T10:27:51.951Z,0.47
2023-05-18T10:30:22.926Z,0.70
2023-05-18T10:32:52.595Z,0.73
2023-05-18T10:35:21.814Z,0.68
2023-05-18T10:37:53.112Z,0.60
2023-05-18T10:40:22.650Z,0.70
2023-05-18T10:42:53.290Z,0.50
2023-05-18T10:45:21.821Z,0.60
2023-05-18T10:47:54.345Z,0.85
2023-05-18T10:50:23.981Z,0.40
2023-05-18T10:52:54.331Z,0.50
2023-05-18T10:55:23.776Z,0.60
2023-05-18T10:57:56.463Z,0.70
2023-05-18T11:00:24.723Z,0.60
2023-05-18T11:02:53.828Z,0.98
2023-05-18T11:05:26.068Z,0.70
2023-05-18T11:08:01.562Z,0.70
2023-05-18T11:10:37.047Z,0.63
2023-05-18T11:13:07.143Z,0.50
2023-05-18T11:16:06.650Z,0.40
2023-05-18T11:18:44.441Z,0.70
2023-05-18T11:21:23.413Z,0.60
2023-05-18T11:24:24.906Z,0.60
2023-05-18T11:26:56.085Z,0.80
2023-05-18T11:29:25.927Z,0.60
2023-05-18T11:31:58.840Z,0.80
2023-05-18T11:34:45.410Z,0.68
2023-05-18T11:37:16.263Z,0.93
2023-05-18T11:39:59.702Z,0.55
2023-05-18T11:42:35.244Z,0.50
2023-05-18T11:45:10.583Z,0.90
2023-05-18T11:47:40.577Z,1.00
2023-05-18T11:50:10.421Z,0.60
2023-05-18T11:52:48.027Z,0.60
2023-05-18T11:55:17.464Z,0.80
2023-05-18T11:57:52.397Z,0.80
2023-05-18T12:00:21.634Z,0.80
2023-05-18T12:02:52.636Z,0.68
2023-05-18T12:05:21.180Z,0.73
2023-05-18T12:07:54.130Z,0.60
2023-05-18T12:10:22.517Z,0.70
2023-05-18T12:12:53.524Z,1.25
2023-05-18T12:15:24.039Z,0.95
2023-05-18T12:17:52.809Z,2.55
2023-05-18T12:20:22.430Z,0.65
2023-05-18T12:22:52.992Z,0.75
2023-05-18T12:25:22.046Z,1.00
2023-05-18T12:27:53.365Z,0.80
2023-05-18T12:30:22.775Z,0.70
2023-05-18T12:32:53.432Z,0.77
2023-05-18T12:35:23.729Z,0.70
2023-05-18T12:37:51.918Z,0.73
2023-05-18T12:40:21.186Z,0.63
2023-05-18T12:42:54.634Z,0.88
2023-05-18T12:45:25.251Z,0.75
2023-05-18T12:47:55.301Z,0.47
2023-05-18T12:50:25.051Z,0.60
2023-05-18T12:52:53.400Z,0.90
2023-05-18T12:55:22.960Z,0.60
2023-05-18T12:58:02.105Z,0.50
2023-05-18T13:00:33.898Z,1.00
2023-05-18T13:03:08.906Z,0.80
2023-05-18T13:05:38.396Z,0.90
2023-05-18T13:08:06.712Z,0.80
2023-05-18T13:10:34.921Z,0.75
2023-05-18T13:13:04.897Z,0.70
2023-05-18T13:15:37.806Z,0.70
2023-05-18T13:18:10.184Z,0.80
2023-05-18T13:20:43.278Z,0.52
2023-05-18T13:23:13.128Z,0.45
2023-05-18T13:25:41.069Z,0.65
2023-05-18T13:28:11.686Z,0.70
2023-05-18T13:30:40.211Z,0.80
2023-05-18T13:33:09.358Z,0.57
2023-05-18T13:35:37.728Z,0.80
2023-05-18T13:38:06.572Z,0.68
2023-05-18T13:40:34.564Z,0.60
2023-05-18T13:43:02.852Z,0.60
2023-05-18T13:45:33.022Z,0.60
2023-05-18T13:48:01.438Z,0.60
2023-05-18T13:50:29.715Z,0.60
2023-05-18T13:52:58.110Z,0.55
2023-05-18T13:55:26.062Z,0.60
2023-05-18T13:57:55.247Z,0.68
2023-05-18T14:00:23.288Z,0.60
2023-05-18T14:02:53.234Z,0.60
2023-05-18T14:05:22.329Z,0.70
2023-05-18T14:07:50.423Z,0.50
2023-05-18T14:10:18.264Z,0.40
2023-05-18T14:12:46.368Z,0.70
2023-05-18T14:15:14.973Z,0.70
2023-05-18T14:17:43.793Z,0.70
2023-05-18T14:20:13.855Z,1.08
2023-05-18T14:22:42.028Z,0.60
2023-05-18T14:25:10.730Z,0.60
2023-05-18T14:27:38.986Z,0.65
2023-05-18T14:30:09.200Z,0.50
2023-05-18T14:32:37.530Z,0.60
2023-05-18T14:35:06.195Z,0.50
2023-05-18T14:37:35.567Z,0.60
2023-05-18T14:40:05.933Z,0.70
2023-05-18T14:42:34.069Z,0.60
2023-05-18T14:45:02.014Z,0.80
2023-05-18T14:47:29.975Z,0.60
2023-05-18T14:49:57.844Z,0.63
2023-05-18T14:52:26.290Z,0.50
2023-05-18T14:54:55.536Z,0.68
2023-05-18T14:57:25.357Z,0.50
2023-05-18T14:59:54.552Z,0.73
2023-05-18T15:02:22.478Z,0.40
2023-05-18T15:04:50.450Z,0.60
2023-05-18T15:07:18.592Z,0.60
2023-05-18T15:09:47.588Z,0.60
2023-05-18T15:12:19.791Z,0.50
2023-05-18T15:14:47.729Z,0.50
2023-05-18T15:17:16.121Z,0.57
2023-05-18T15:19:43.983Z,0.55
2023-05-18T15:22:11.849Z,0.82
2023-05-18T15:24:39.877Z,0.70
2023-05-18T15:27:08.826Z,0.60
2023-05-18T15:29:38.064Z,0.70
2023-05-18T15:32:07.144Z,0.88
2023-05-18T15:34:35.313Z,0.60
2023-05-18T15:37:03.485Z,0.70
2023-05-18T15:39:31.528Z,0.77
2023-05-18T15:41:59.476Z,0.80
2023-05-18T15:44:29.481Z,0.80
2023-05-18T15:46:59.070Z,0.63
2023-05-18T15:49:27.038Z,0.80
2023-05-18T15:51:54.942Z,0.63
2023-05-18T15:54:22.975Z,0.60
2023-05-18T15:56:51.129Z,0.43
2023-05-18T15:59:19.000Z,0.73
2023-05-18T16:01:47.200Z,0.77
2023-05-18T16:04:16.529Z,0.80
2023-05-18T16:06:44.541Z,0.90
2023-05-18T16:09:12.670Z,0.90
2023-05-18T16:11:40.583Z,0.77
2023-05-18T16:14:09.563Z,0.80
2023-05-18T16:16:37.605Z,0.70
2023-05-18T16:19:07.554Z,0.80
2023-05-18T16:21:36.947Z,0.77
2023-05-18T16:24:05.361Z,1.10
2023-05-18T16:26:34.086Z,0.68
2023-05-18T16:29:03.357Z,0.80
2023-05-18T16:31:31.525Z,0.70
2023-05-18T16:33:59.873Z,0.93
2023-05-18T16:36:28.301Z,0.90
2023-05-18T16:39:02.884Z,0.80
2023-05-18T16:41:30.801Z,0.88
2023-05-18T16:43:58.740Z,0.90
2023-05-18T16:46:26.795Z,0.93
2023-05-18T16:48:54.980Z,0.90
2023-05-18T16:51:23.502Z,0.80
2023-05-18T16:53:52.756Z,0.90
2023-05-18T16:56:22.527Z,0.90
2023-05-18T16:58:52.376Z,0.80
2023-05-18T17:01:28.218Z,0.95
2023-05-18T17:03:57.417Z,1.10
2023-05-18T17:06:26.105Z,0.70
2023-05-18T17:08:58.184Z,0.80
2023-05-18T17:11:28.104Z,0.75
2023-05-18T17:13:57.685Z,0.50
2023-05-18T17:16:26.827Z,0.70
2023-05-18T17:18:56.174Z,0.80
2023-05-18T17:21:26.713Z,0.60
2023-05-18T17:23:54.647Z,0.60
2023-05-18T17:26:23.028Z,0.85
2023-05-18T17:28:53.059Z,0.70
2023-05-18T17:31:21.042Z,0.55
2023-05-18T17:33:49.025Z,0.63
2023-05-18T17:36:18.251Z,0.50
2023-05-18T17:38:46.935Z,0.60
2023-05-18T17:41:15.016Z,0.77
2023-05-18T17:43:42.939Z,0.60
2023-05-18T17:46:12.194Z,0.80
2023-05-18T17:48:40.166Z,0.80
2023-05-18T17:51:08.313Z,1.35
2023-05-18T17:53:41.883Z,0.70
2023-05-18T17:56:10.532Z,0.95
2023-05-18T17:58:39.457Z,0.88
2023-05-18T18:01:08.751Z,1.20
2023-05-18T18:03:38.450Z,0.60
2023-05-18T18:06:06.789Z,0.85
2023-05-18T18:08:34.804Z,0.85
2023-05-18T18:11:02.902Z,0.77
2023-05-18T18:13:30.899Z,0.60
2023-05-18T18:16:00.360Z,0.70
2023-05-18T18:18:28.518Z,0.73
2023-05-18T18:21:00.282Z,0.65
2023-05-18T18:23:28.320Z,0.80
2023-05-18T18:25:56.406Z,0.70
2023-05-18T18:28:24.277Z,0.80
2023-05-18T18:30:52.261Z,0.60
2023-05-18T18:33:21.730Z,0.70
2023-05-18T18:35:50.018Z,0.70
2023-05-18T18:38:19.336Z,0.77
2023-05-18T18:40:47.396Z,1.00
2023-05-18T18:43:15.835Z,0.70
2023-05-18T18:45:43.978Z,0.95
2023-05-18T18:48:11.951Z,0.82
2023-05-18T18:50:39.965Z,0.70
2023-05-18T18:53:07.858Z,0.70
2023-05-18T18:55:37.339Z,0.60
2023-05-18T18:58:05.248Z,0.80
2023-05-18T19:00:33.130Z,0.90
2023-05-18T19:03:01.146Z,1.00
2023-05-18T19:05:31.011Z,0.88
2023-05-18T19:07:59.430Z,1.23
2023-05-18T19:10:27.353Z,0.98
2023-05-18T19:12:59.451Z,1.25
2023-05-18T19:15:27.494Z,1.15
2023-05-18T19:17:55.539Z,1.20
2023-05-18T19:20:24.091Z,0.73
2023-05-18T19:22:53.475Z,1.20
2023-05-18T19:25:21.697Z,0.93
2023-05-18T19:27:49.577Z,0.95
2023-05-18T19:30:21.230Z,1.20
2023-05-18T19:32:49.978Z,1.33
2023-05-18T19:35:19.802Z,1.08
2023-05-18T19:37:48.263Z,1.10
2023-05-18T19:40:17.002Z,1.13
2023-05-18T19:42:45.338Z,1.25
2023-05-18T19:45:13.216Z,1.30
2023-05-18T19:47:45.005Z,1.05
2023-05-18T19:50:13.246Z,1.20
2023-05-18T19:52:41.310Z,1.00
2023-05-18T19:55:09.483Z,1.13
2023-05-18T19:57:37.366Z,0.93
2023-05-18T20:00:07.120Z,1.48
2023-05-18T20:02:35.152Z,1.17
2023-05-18T20:05:06.080Z,1.17
2023-05-18T20:07:34.415Z,1.13
2023-05-18T20:10:02.442Z,1.80
2023-05-18T20:12:32.188Z,1.00
2023-05-18T20:15:00.178Z,1.15
2023-05-18T20:17:28.343Z,1.05
2023-05-18T20:19:56.254Z,1.00
2023-05-18T20:22:25.584Z,1.17
2023-05-18T20:24:54.396Z,1.20
2023-05-18T20:27:22.379Z,0.98
2023-05-18T20:29:50.287Z,1.00
2023-05-18T20:32:18.329Z,1.08
2023-05-18T20:34:46.218Z,0.98
2023-05-18T20:37:14.906Z,1.00
2023-05-18T20:39:50.598Z,1.17
2023-05-18T20:42:22.086Z,0.90
2023-05-18T20:44:52.419Z,1.45
2023-05-18T20:47:21.135Z,1.17
2023-05-18T20:49:49.339Z,1.20
2023-05-18T20:52:17.409Z,1.30
2023-05-18T20:54:47.408Z,0.90
2023-05-18T20:57:15.375Z,0.90
2023-05-18T20:59:43.475Z,1.10
2023-05-18T21:02:11.328Z,1.00
2023-05-18T21:04:39.265Z,1.23
2023-05-18T21:07:07.196Z,1.30
2023-05-18T21:09:35.062Z,1.23
2023-05-18T21:12:04.529Z,1.17
2023-05-18T21:14:32.490Z,1.00
2023-05-18T21:17:00.607Z,1.30
2023-05-18T21:19:28.614Z,0.93
2023-05-18T21:21:56.852Z,1.08
2023-05-18T21:24:24.744Z,1.25
2023-05-18T21:26:52.874Z,1.48
2023-05-18T21:29:22.297Z,1.10
2023-05-18T21:31:50.274Z,1.38
2023-05-18T21:34:18.220Z,1.30
2023-05-18T21:36:46.417Z,1.13
2023-05-18T21:39:14.328Z,1.20
2023-05-18T21:41:44.398Z,1.45
2023-05-18T21:44:12.508Z,1.30
2023-05-18T21:46:41.830Z,1.00
2023-05-18T21:49:09.892Z,1.38
2023-05-18T21:51:37.837Z,1.08
2023-05-18T21:54:06.006Z,1.35
2023-05-18T21:56:34.883Z,1.33
2023-05-18T21:59:02.856Z,1.15
2023-05-18T22:01:30.997Z,0.95
2023-05-18T22:04:00.812Z,1.15
2023-05-18T22:06:29.391Z,1.48
2023-05-18T22:08:57.285Z,1.58
2023-05-18T22:11:25.144Z,1.38
2023-05-18T22:13:53.147Z,1.45
2023-05-18T22:16:21.323Z,1.27
2023-05-18T22:18:49.248Z,1.40
2023-05-18T22:21:18.643Z,1.52
2023-05-18T22:23:46.477Z,1.55
2023-05-18T22:26:14.469Z,1.33
2023-05-18T22:28:42.626Z,1.20
2023-05-18T22:31:10.584Z,1.25
2023-05-18T22:33:38.465Z,1.42
2023-05-18T22:36:07.202Z,1.00
2023-05-18T22:38:36.440Z,1.50
2023-05-18T22:41:04.293Z,1.60
2023-05-18T22:43:32.250Z,1.60
2023-05-18T22:46:00.210Z,1.30
2023-05-18T22:48:28.559Z,1.75
2023-05-18T22:50:57.379Z,1.58
2023-05-18T22:53:25.230Z,1.15
2023-05-18T22:55:56.582Z,1.58
2023-05-18T22:58:24.680Z,1.40
2023-05-18T23:00:52.824Z,1.48
2023-05-18T23:03:20.847Z,1.25
2023-05-18T23:05:49.458Z,1.27
2023-05-18T23:08:17.420Z,1.35
2023-05-18T23:10:45.367Z,1.25
2023-05-18T23:13:16.188Z,1.63
2023-05-18T23:15:44.444Z,1.40
2023-05-18T23:18:12.592Z,1.48
2023-05-18T23:20:41.667Z,1.65
2023-05-18T23:23:09.974Z,1.48
2023-05-18T23:25:37.851Z,1.95
2023-05-18T23:28:06.228Z,1.20
2023-05-18T23:30:35.484Z,1.30
2023-05-18T23:33:04.014Z,1.42
2023-05-18T23:35:32.584Z,1.73
2023-05-18T23:38:04.763Z,1.70
2023-05-18T23:40:33.833Z,1.20
2023-05-18T23:43:02.565Z,1.92
2023-05-18T23:45:31.139Z,1.58
2023-05-18T23:48:01.103Z,1.77
2023-05-18T23:50:29.722Z,2.58
2023-05-18T23:53:04.268Z,1.33
2023-05-18T23:55:34.999Z,2.00
2023-05-18T23:58:03.794Z,1.65
